sensor_id;sensor_type;location;lat;lon;timestamp;P1;durP1;ratioP1;P2;durP2;ratioP2
36829;SDS011;22767;47.328;9.640;2022-12-08T00:00:48;7.05;;;4.50;;
36829;SDS011;22767;47.328;9.640;2022-12-08T00:03:14;5.75;;;3.67;;
36829;SDS011;22767;47.328;9.640;2022-12-08T00:05:47;7.95;;;4.75;;
36829;SDS011;22767;47.328;9.640;2022-12-08T00:08:32;7.63;;;4.65;;
36829;SDS011;22767;47.328;9.640;2022-12-08T00:11:18;7.10;;;4.60;;
36829;SDS011;22767;47.328;9.640;2022-12-08T00:13:44;6.97;;;4.70;;
36829;SDS011;22767;47.328;9.640;2022-12-08T00:16:10;9.90;;;4.82;;
36829;SDS011;22767;47.328;9.640;2022-12-08T00:18:37;6.82;;;4.22;;
36829;SDS011;22767;47.328;9.640;2022-12-08T00:21:03;6.85;;;4.00;;
36829;SDS011;22767;47.328;9.640;2022-12-08T00:23:29;6.10;;;4.28;;
36829;SDS011;22767;47.328;9.640;2022-12-08T00:25:55;6.50;;;4.28;;
36829;SDS011;22767;47.328;9.640;2022-12-08T00:28:22;7.57;;;3.70;;
36829;SDS011;22767;47.328;9.640;2022-12-08T00:30:48;7.40;;;4.07;;
36829;SDS011;22767;47.328;9.640;2022-12-08T00:33:14;6.13;;;3.50;;
36829;SDS011;22767;47.328;9.640;2022-12-08T00:35:40;6.90;;;4.05;;
36829;SDS011;22767;47.328;9.640;2022-12-08T00:38:06;8.73;;;4.00;;
36829;SDS011;22767;47.328;9.640;2022-12-08T00:40:33;6.80;;;4.22;;
36829;SDS011;22767;47.328;9.640;2022-12-08T00:42:59;7.43;;;3.92;;
36829;SDS011;22767;47.328;9.640;2022-12-08T00:45:25;7.50;;;3.50;;
36829;SDS011;22767;47.328;9.640;2022-12-08T00:47:51;8.55;;;4.15;;
36829;SDS011;22767;47.328;9.640;2022-12-08T00:50:17;6.15;;;3.35;;
36829;SDS011;22767;47.328;9.640;2022-12-08T00:52:43;6.60;;;3.40;;
36829;SDS011;22767;47.328;9.640;2022-12-08T00:55:09;8.40;;;4.05;;
36829;SDS011;22767;47.328;9.640;2022-12-08T00:57:35;5.18;;;3.38;;
36829;SDS011;22767;47.328;9.640;2022-12-08T01:00:02;6.88;;;3.50;;
36829;SDS011;22767;47.328;9.640;2022-12-08T01:02:28;6.38;;;3.30;;
36829;SDS011;22767;47.328;9.640;2022-12-08T01:04:56;9.68;;;3.85;;
36829;SDS011;22767;47.328;9.640;2022-12-08T01:07:22;7.90;;;4.07;;
36829;SDS011;22767;47.328;9.640;2022-12-08T01:09:48;8.13;;;4.22;;
36829;SDS011;22767;47.328;9.640;2022-12-08T01:12:14;6.78;;;3.60;;
36829;SDS011;22767;47.328;9.640;2022-12-08T01:14:40;4.82;;;2.95;;
36829;SDS011;22767;47.328;9.640;2022-12-08T01:17:06;7.22;;;3.72;;
36829;SDS011;22767;47.328;9.640;2022-12-08T01:19:33;5.82;;;3.47;;
36829;SDS011;22767;47.328;9.640;2022-12-08T01:21:59;7.38;;;4.20;;
36829;SDS011;22767;47.328;9.640;2022-12-08T01:24:25;6.05;;;3.65;;
36829;SDS011;22767;47.328;9.640;2022-12-08T01:26:51;5.60;;;3.33;;
36829;SDS011;22767;47.328;9.640;2022-12-08T01:29:17;6.18;;;3.25;;
36829;SDS011;22767;47.328;9.640;2022-12-08T01:31:43;8.43;;;3.83;;
36829;SDS011;22767;47.328;9.640;2022-12-08T01:34:09;6.47;;;4.10;;
36829;SDS011;22767;47.328;9.640;2022-12-08T01:36:36;7.38;;;2.70;;
36829;SDS011;22767;47.328;9.640;2022-12-08T01:39:03;5.38;;;3.33;;
36829;SDS011;22767;47.328;9.640;2022-12-08T01:41:31;4.65;;;3.03;;
36829;SDS011;22767;47.328;9.640;2022-12-08T01:46:36;4.97;;;3.35;;
36829;SDS011;22767;47.328;9.640;2022-12-08T01:51:29;5.47;;;3.00;;
36829;SDS011;22767;47.328;9.640;2022-12-08T01:53:58;5.97;;;3.38;;
36829;SDS011;22767;47.328;9.640;2022-12-08T01:56:30;5.55;;;3.10;;
36829;SDS011;22767;47.328;9.640;2022-12-08T01:58:58;5.97;;;3.28;;
36829;SDS011;22767;47.328;9.640;2022-12-08T02:01:25;6.00;;;3.42;;
36829;SDS011;22767;47.328;9.640;2022-12-08T02:03:55;7.13;;;3.20;;
36829;SDS011;22767;47.328;9.640;2022-12-08T02:06:22;5.50;;;3.20;;
36829;SDS011;22767;47.328;9.640;2022-12-08T02:08:49;6.82;;;3.28;;
36829;SDS011;22767;47.328;9.640;2022-12-08T02:11:16;6.85;;;3.60;;
36829;SDS011;22767;47.328;9.640;2022-12-08T02:13:43;7.80;;;3.80;;
36829;SDS011;22767;47.328;9.640;2022-12-08T02:21:12;5.30;;;3.05;;
36829;SDS011;22767;47.328;9.640;2022-12-08T02:24:25;6.05;;;3.03;;
36829;SDS011;22767;47.328;9.640;2022-12-08T02:26:42;5.72;;;2.90;;
36829;SDS011;22767;47.328;9.640;2022-12-08T02:36:52;5.47;;;2.42;;
36829;SDS011;22767;47.328;9.640;2022-12-08T02:42:12;3.97;;;2.70;;
36829;SDS011;22767;47.328;9.640;2022-12-08T02:47:12;5.13;;;3.03;;
36829;SDS011;22767;47.328;9.640;2022-12-08T02:49:38;5.03;;;3.05;;
36829;SDS011;22767;47.328;9.640;2022-12-08T02:54:41;6.35;;;3.00;;
36829;SDS011;22767;47.328;9.640;2022-12-08T03:10:12;4.47;;;2.72;;
36829;SDS011;22767;47.328;9.640;2022-12-08T03:12:48;5.25;;;2.97;;
36829;SDS011;22767;47.328;9.640;2022-12-08T03:15:16;3.40;;;2.38;;
36829;SDS011;22767;47.328;9.640;2022-12-08T03:17:44;5.22;;;2.90;;
36829;SDS011;22767;47.328;9.640;2022-12-08T03:20:13;6.53;;;3.40;;
36829;SDS011;22767;47.328;9.640;2022-12-08T03:22:41;5.75;;;3.45;;
36829;SDS011;22767;47.328;9.640;2022-12-08T03:25:09;6.40;;;3.40;;
36829;SDS011;22767;47.328;9.640;2022-12-08T03:27:37;7.43;;;3.22;;
36829;SDS011;22767;47.328;9.640;2022-12-08T03:30:04;5.70;;;3.42;;
36829;SDS011;22767;47.328;9.640;2022-12-08T03:35:07;4.97;;;2.90;;
36829;SDS011;22767;47.328;9.640;2022-12-08T03:37:37;6.53;;;3.30;;
36829;SDS011;22767;47.328;9.640;2022-12-08T03:40:05;5.25;;;3.08;;
36829;SDS011;22767;47.328;9.640;2022-12-08T03:42:31;6.90;;;2.97;;
36829;SDS011;22767;47.328;9.640;2022-12-08T03:44:57;4.80;;;3.20;;
36829;SDS011;22767;47.328;9.640;2022-12-08T03:47:23;5.47;;;2.95;;
36829;SDS011;22767;47.328;9.640;2022-12-08T03:49:50;5.03;;;2.78;;
36829;SDS011;22767;47.328;9.640;2022-12-08T03:52:16;8.00;;;3.22;;
36829;SDS011;22767;47.328;9.640;2022-12-08T03:54:42;6.40;;;2.78;;
36829;SDS011;22767;47.328;9.640;2022-12-08T03:57:08;6.15;;;2.92;;
36829;SDS011;22767;47.328;9.640;2022-12-08T03:59:34;4.57;;;2.60;;
36829;SDS011;22767;47.328;9.640;2022-12-08T04:02:00;3.67;;;2.53;;
36829;SDS011;22767;47.328;9.640;2022-12-08T04:04:26;3.85;;;2.38;;
36829;SDS011;22767;47.328;9.640;2022-12-08T04:06:53;4.03;;;2.85;;
36829;SDS011;22767;47.328;9.640;2022-12-08T04:09:19;8.02;;;2.78;;
36829;SDS011;22767;47.328;9.640;2022-12-08T04:11:45;5.57;;;2.50;;
36829;SDS011;22767;47.328;9.640;2022-12-08T04:14:11;4.43;;;2.90;;
36829;SDS011;22767;47.328;9.640;2022-12-08T04:16:37;7.63;;;2.78;;
36829;SDS011;22767;47.328;9.640;2022-12-08T04:19:03;5.90;;;2.58;;
36829;SDS011;22767;47.328;9.640;2022-12-08T04:21:29;8.60;;;2.72;;
36829;SDS011;22767;47.328;9.640;2022-12-08T04:23:55;5.75;;;2.85;;
36829;SDS011;22767;47.328;9.640;2022-12-08T04:26:21;6.13;;;3.00;;
36829;SDS011;22767;47.328;9.640;2022-12-08T04:28:48;8.65;;;3.00;;
36829;SDS011;22767;47.328;9.640;2022-12-08T04:31:14;4.97;;;3.08;;
36829;SDS011;22767;47.328;9.640;2022-12-08T04:33:40;4.75;;;3.17;;
36829;SDS011;22767;47.328;9.640;2022-12-08T04:36:07;5.40;;;2.70;;
36829;SDS011;22767;47.328;9.640;2022-12-08T04:38:33;4.70;;;3.17;;
36829;SDS011;22767;47.328;9.640;2022-12-08T04:40:59;8.43;;;3.60;;
36829;SDS011;22767;47.328;9.640;2022-12-08T04:43:25;7.70;;;3.00;;
36829;SDS011;22767;47.328;9.640;2022-12-08T04:45:52;6.88;;;3.70;;
36829;SDS011;22767;47.328;9.640;2022-12-08T04:48:18;7.30;;;3.42;;
36829;SDS011;22767;47.328;9.640;2022-12-08T04:50:44;7.50;;;3.15;;
36829;SDS011;22767;47.328;9.640;2022-12-08T04:53:11;8.70;;;3.30;;
36829;SDS011;22767;47.328;9.640;2022-12-08T04:55:41;4.75;;;2.88;;
36829;SDS011;22767;47.328;9.640;2022-12-08T04:58:12;5.80;;;2.97;;
36829;SDS011;22767;47.328;9.640;2022-12-08T05:00:39;8.15;;;3.08;;
36829;SDS011;22767;47.328;9.640;2022-12-08T05:03:05;8.13;;;3.22;;
36829;SDS011;22767;47.328;9.640;2022-12-08T05:05:31;7.40;;;3.72;;
36829;SDS011;22767;47.328;9.640;2022-12-08T05:07:57;6.25;;;3.85;;
36829;SDS011;22767;47.328;9.640;2022-12-08T05:10:23;5.03;;;3.15;;
36829;SDS011;22767;47.328;9.640;2022-12-08T05:12:50;6.25;;;3.65;;
36829;SDS011;22767;47.328;9.640;2022-12-08T05:15:17;5.10;;;2.70;;
36829;SDS011;22767;47.328;9.640;2022-12-08T05:17:43;4.82;;;3.17;;
36829;SDS011;22767;47.328;9.640;2022-12-08T05:20:09;10.95;;;3.75;;
36829;SDS011;22767;47.328;9.640;2022-12-08T05:22:35;6.53;;;3.50;;
36829;SDS011;22767;47.328;9.640;2022-12-08T05:25:02;6.80;;;3.28;;
36829;SDS011;22767;47.328;9.640;2022-12-08T05:27:28;5.78;;;3.50;;
36829;SDS011;22767;47.328;9.640;2022-12-08T05:29:54;5.65;;;3.20;;
36829;SDS011;22767;47.328;9.640;2022-12-08T05:32:20;4.78;;;2.83;;
36829;SDS011;22767;47.328;9.640;2022-12-08T05:34:46;6.13;;;3.05;;
36829;SDS011;22767;47.328;9.640;2022-12-08T05:37:12;5.47;;;3.05;;
36829;SDS011;22767;47.328;9.640;2022-12-08T05:39:38;4.63;;;2.75;;
36829;SDS011;22767;47.328;9.640;2022-12-08T05:42:04;6.28;;;3.20;;
36829;SDS011;22767;47.328;9.640;2022-12-08T05:44:31;5.90;;;3.33;;
36829;SDS011;22767;47.328;9.640;2022-12-08T05:46:57;6.97;;;3.70;;
36829;SDS011;22767;47.328;9.640;2022-12-08T05:49:23;5.70;;;3.55;;
36829;SDS011;22767;47.328;9.640;2022-12-08T05:51:49;7.78;;;3.42;;
36829;SDS011;22767;47.328;9.640;2022-12-08T05:54:15;7.10;;;4.40;;
36829;SDS011;22767;47.328;9.640;2022-12-08T05:56:41;6.07;;;3.05;;
36829;SDS011;22767;47.328;9.640;2022-12-08T05:59:07;4.50;;;2.72;;
36829;SDS011;22767;47.328;9.640;2022-12-08T06:01:34;7.35;;;2.70;;
36829;SDS011;22767;47.328;9.640;2022-12-08T06:04:01;5.35;;;3.30;;
36829;SDS011;22767;47.328;9.640;2022-12-08T06:06:28;6.47;;;2.90;;
36829;SDS011;22767;47.328;9.640;2022-12-08T06:08:54;4.85;;;2.60;;
36829;SDS011;22767;47.328;9.640;2022-12-08T06:11:25;4.18;;;2.58;;
36829;SDS011;22767;47.328;9.640;2022-12-08T06:13:51;4.50;;;2.78;;
36829;SDS011;22767;47.328;9.640;2022-12-08T06:16:18;7.22;;;3.15;;
36829;SDS011;22767;47.328;9.640;2022-12-08T06:18:44;4.85;;;3.20;;
36829;SDS011;22767;47.328;9.640;2022-12-08T06:21:11;5.93;;;3.20;;
36829;SDS011;22767;47.328;9.640;2022-12-08T06:23:38;5.45;;;3.33;;
36829;SDS011;22767;47.328;9.640;2022-12-08T06:26:05;5.88;;;3.42;;
36829;SDS011;22767;47.328;9.640;2022-12-08T06:28:33;7.30;;;4.00;;
36829;SDS011;22767;47.328;9.640;2022-12-08T06:30:59;9.35;;;5.07;;
36829;SDS011;22767;47.328;9.640;2022-12-08T06:33:31;15.00;;;8.65;;
36829;SDS011;22767;47.328;9.640;2022-12-08T06:35:57;8.80;;;4.90;;
36829;SDS011;22767;47.328;9.640;2022-12-08T06:38:23;6.40;;;3.63;;
36829;SDS011;22767;47.328;9.640;2022-12-08T06:40:56;7.90;;;3.53;;
36829;SDS011;22767;47.328;9.640;2022-12-08T06:43:22;5.57;;;3.28;;
36829;SDS011;22767;47.328;9.640;2022-12-08T06:45:49;5.65;;;3.33;;
36829;SDS011;22767;47.328;9.640;2022-12-08T06:48:16;10.18;;;5.53;;
36829;SDS011;22767;47.328;9.640;2022-12-08T06:50:42;10.57;;;4.68;;
36829;SDS011;22767;47.328;9.640;2022-12-08T06:53:12;5.43;;;3.38;;
36829;SDS011;22767;47.328;9.640;2022-12-08T06:55:51;8.27;;;5.38;;
36829;SDS011;22767;47.328;9.640;2022-12-08T06:58:18;12.45;;;8.88;;
36829;SDS011;22767;47.328;9.640;2022-12-08T07:00:44;11.35;;;6.75;;
36829;SDS011;22767;47.328;9.640;2022-12-08T07:03:11;11.02;;;5.70;;
36829;SDS011;22767;47.328;9.640;2022-12-08T07:05:37;9.57;;;5.38;;
36829;SDS011;22767;47.328;9.640;2022-12-08T07:08:05;9.55;;;6.05;;
36829;SDS011;22767;47.328;9.640;2022-12-08T07:10:32;11.40;;;5.90;;
36829;SDS011;22767;47.328;9.640;2022-12-08T07:12:58;12.02;;;7.18;;
36829;SDS011;22767;47.328;9.640;2022-12-08T07:15:24;12.18;;;8.15;;
36829;SDS011;22767;47.328;9.640;2022-12-08T07:17:50;12.23;;;7.88;;
36829;SDS011;22767;47.328;9.640;2022-12-08T07:20:17;12.95;;;6.47;;
36829;SDS011;22767;47.328;9.640;2022-12-08T07:22:52;13.43;;;6.93;;
36829;SDS011;22767;47.328;9.640;2022-12-08T07:25:18;10.30;;;5.82;;
36829;SDS011;22767;47.328;9.640;2022-12-08T07:27:45;9.88;;;5.82;;
36829;SDS011;22767;47.328;9.640;2022-12-08T07:30:11;10.57;;;6.25;;
36829;SDS011;22767;47.328;9.640;2022-12-08T07:32:38;16.52;;;7.63;;
36829;SDS011;22767;47.328;9.640;2022-12-08T07:35:07;18.65;;;9.85;;
36829;SDS011;22767;47.328;9.640;2022-12-08T07:37:34;14.43;;;8.25;;
36829;SDS011;22767;47.328;9.640;2022-12-08T07:40:02;11.48;;;6.50;;
36829;SDS011;22767;47.328;9.640;2022-12-08T07:42:31;18.42;;;8.50;;
36829;SDS011;22767;47.328;9.640;2022-12-08T07:44:58;10.40;;;6.78;;
36829;SDS011;22767;47.328;9.640;2022-12-08T07:47:24;10.88;;;5.18;;
36829;SDS011;22767;47.328;9.640;2022-12-08T07:49:50;8.02;;;4.65;;
36829;SDS011;22767;47.328;9.640;2022-12-08T07:52:17;11.43;;;5.80;;
36829;SDS011;22767;47.328;9.640;2022-12-08T07:54:43;14.25;;;6.60;;
36829;SDS011;22767;47.328;9.640;2022-12-08T07:57:09;8.75;;;5.45;;
36829;SDS011;22767;47.328;9.640;2022-12-08T07:59:35;9.48;;;5.50;;
36829;SDS011;22767;47.328;9.640;2022-12-08T08:02:02;8.85;;;4.97;;
36829;SDS011;22767;47.328;9.640;2022-12-08T08:04:28;11.30;;;5.78;;
36829;SDS011;22767;47.328;9.640;2022-12-08T08:06:54;12.65;;;6.13;;
36829;SDS011;22767;47.328;9.640;2022-12-08T08:09:20;14.48;;;6.25;;
36829;SDS011;22767;47.328;9.640;2022-12-08T08:11:46;23.50;;;9.10;;
36829;SDS011;22767;47.328;9.640;2022-12-08T08:14:12;17.65;;;6.57;;
36829;SDS011;22767;47.328;9.640;2022-12-08T08:16:38;6.85;;;4.25;;
36829;SDS011;22767;47.328;9.640;2022-12-08T08:19:10;8.35;;;4.25;;
36829;SDS011;22767;47.328;9.640;2022-12-08T08:21:36;6.90;;;3.97;;
36829;SDS011;22767;47.328;9.640;2022-12-08T08:24:02;7.75;;;4.82;;
36829;SDS011;22767;47.328;9.640;2022-12-08T08:26:29;8.90;;;5.00;;
36829;SDS011;22767;47.328;9.640;2022-12-08T08:28:55;9.13;;;4.93;;
36829;SDS011;22767;47.328;9.640;2022-12-08T08:31:24;6.72;;;4.47;;
36829;SDS011;22767;47.328;9.640;2022-12-08T08:33:51;8.80;;;4.80;;
36829;SDS011;22767;47.328;9.640;2022-12-08T08:36:17;8.65;;;4.70;;
36829;SDS011;22767;47.328;9.640;2022-12-08T08:38:43;8.13;;;4.40;;
36829;SDS011;22767;47.328;9.640;2022-12-08T08:41:09;10.05;;;4.72;;
36829;SDS011;22767;47.328;9.640;2022-12-08T08:43:36;11.80;;;6.10;;
36829;SDS011;22767;47.328;9.640;2022-12-08T08:46:03;15.60;;;6.53;;
36829;SDS011;22767;47.328;9.640;2022-12-08T08:48:30;13.48;;;7.25;;
36829;SDS011;22767;47.328;9.640;2022-12-08T08:50:56;14.82;;;6.93;;
36829;SDS011;22767;47.328;9.640;2022-12-08T08:53:23;13.35;;;7.25;;
36829;SDS011;22767;47.328;9.640;2022-12-08T08:55:49;13.65;;;8.48;;
36829;SDS011;22767;47.328;9.640;2022-12-08T08:58:15;14.85;;;7.57;;
36829;SDS011;22767;47.328;9.640;2022-12-08T09:00:42;13.30;;;6.82;;
36829;SDS011;22767;47.328;9.640;2022-12-08T09:03:08;12.93;;;6.10;;
36829;SDS011;22767;47.328;9.640;2022-12-08T09:05:36;9.63;;;5.90;;
36829;SDS011;22767;47.328;9.640;2022-12-08T09:08:02;10.73;;;6.40;;
36829;SDS011;22767;47.328;9.640;2022-12-08T09:10:28;10.35;;;5.30;;
36829;SDS011;22767;47.328;9.640;2022-12-08T09:12:55;9.65;;;4.85;;
36829;SDS011;22767;47.328;9.640;2022-12-08T09:15:21;11.52;;;4.78;;
36829;SDS011;22767;47.328;9.640;2022-12-08T09:17:47;9.23;;;4.93;;
36829;SDS011;22767;47.328;9.640;2022-12-08T09:20:13;8.23;;;5.03;;
36829;SDS011;22767;47.328;9.640;2022-12-08T09:22:39;9.70;;;5.30;;
36829;SDS011;22767;47.328;9.640;2022-12-08T09:25:05;11.82;;;6.25;;
36829;SDS011;22767;47.328;9.640;2022-12-08T09:27:32;8.68;;;5.85;;
36829;SDS011;22767;47.328;9.640;2022-12-08T09:29:58;9.80;;;5.78;;
36829;SDS011;22767;47.328;9.640;2022-12-08T09:32:24;11.43;;;6.68;;
36829;SDS011;22767;47.328;9.640;2022-12-08T09:34:50;13.02;;;6.97;;
36829;SDS011;22767;47.328;9.640;2022-12-08T09:37:18;11.77;;;6.10;;
36829;SDS011;22767;47.328;9.640;2022-12-08T09:39:44;10.60;;;5.97;;
36829;SDS011;22767;47.328;9.640;2022-12-08T09:42:11;10.27;;;6.45;;
36829;SDS011;22767;47.328;9.640;2022-12-08T09:47:18;8.93;;;6.28;;
36829;SDS011;22767;47.328;9.640;2022-12-08T09:49:48;13.32;;;6.85;;
36829;SDS011;22767;47.328;9.640;2022-12-08T09:52:18;14.07;;;10.38;;
36829;SDS011;22767;47.328;9.640;2022-12-08T09:54:46;12.65;;;7.70;;
36829;SDS011;22767;47.328;9.640;2022-12-08T09:57:14;9.38;;;7.25;;
36829;SDS011;22767;47.328;9.640;2022-12-08T09:59:40;11.55;;;6.15;;
36829;SDS011;22767;47.328;9.640;2022-12-08T10:02:23;11.38;;;6.28;;
36829;SDS011;22767;47.328;9.640;2022-12-08T10:04:50;12.07;;;6.25;;
36829;SDS011;22767;47.328;9.640;2022-12-08T10:17:40;9.82;;;6.10;;
36829;SDS011;22767;47.328;9.640;2022-12-08T10:22:36;8.95;;;5.70;;
36829;SDS011;22767;47.328;9.640;2022-12-08T10:25:08;11.98;;;6.03;;
36829;SDS011;22767;47.328;9.640;2022-12-08T10:27:36;12.95;;;5.80;;
36829;SDS011;22767;47.328;9.640;2022-12-08T10:30:10;10.35;;;5.95;;
36829;SDS011;22767;47.328;9.640;2022-12-08T10:32:37;8.90;;;5.50;;
36829;SDS011;22767;47.328;9.640;2022-12-08T10:35:08;9.75;;;5.70;;
36829;SDS011;22767;47.328;9.640;2022-12-08T10:37:36;14.95;;;5.75;;
36829;SDS011;22767;47.328;9.640;2022-12-08T10:42:32;10.68;;;5.35;;
36829;SDS011;22767;47.328;9.640;2022-12-08T10:47:39;11.20;;;5.25;;
36829;SDS011;22767;47.328;9.640;2022-12-08T10:50:22;11.75;;;5.85;;
36829;SDS011;22767;47.328;9.640;2022-12-08T10:55:27;9.02;;;5.43;;
36829;SDS011;22767;47.328;9.640;2022-12-08T10:57:54;9.50;;;5.47;;
36829;SDS011;22767;47.328;9.640;2022-12-08T11:00:22;8.65;;;4.85;;
36829;SDS011;22767;47.328;9.640;2022-12-08T11:02:53;8.70;;;4.90;;
36829;SDS011;22767;47.328;9.640;2022-12-08T11:05:20;11.73;;;5.32;;
36829;SDS011;22767;47.328;9.640;2022-12-08T11:07:50;8.82;;;5.10;;
36829;SDS011;22767;47.328;9.640;2022-12-08T11:10:17;7.97;;;4.82;;
36829;SDS011;22767;47.328;9.640;2022-12-08T11:12:44;11.15;;;4.85;;
36829;SDS011;22767;47.328;9.640;2022-12-08T11:15:17;9.90;;;4.47;;
36829;SDS011;22767;47.328;9.640;2022-12-08T11:17:43;8.43;;;4.55;;
36829;SDS011;22767;47.328;9.640;2022-12-08T11:22:40;7.88;;;4.47;;
36829;SDS011;22767;47.328;9.640;2022-12-08T11:25:08;9.10;;;5.03;;
36829;SDS011;22767;47.328;9.640;2022-12-08T11:27:39;6.47;;;4.13;;
36829;SDS011;22767;47.328;9.640;2022-12-08T11:32:43;7.90;;;4.95;;
36829;SDS011;22767;47.328;9.640;2022-12-08T11:35:23;9.93;;;4.38;;
36829;SDS011;22767;47.328;9.640;2022-12-08T11:37:50;7.50;;;4.20;;
36829;SDS011;22767;47.328;9.640;2022-12-08T11:40:33;5.38;;;3.63;;
36829;SDS011;22767;47.328;9.640;2022-12-08T11:45:45;7.15;;;3.90;;
36829;SDS011;22767;47.328;9.640;2022-12-08T11:50:48;5.15;;;3.28;;
36829;SDS011;22767;47.328;9.640;2022-12-08T11:56:07;5.43;;;3.67;;
36829;SDS011;22767;47.328;9.640;2022-12-08T12:01:01;9.90;;;3.70;;
36829;SDS011;22767;47.328;9.640;2022-12-08T12:03:29;5.78;;;3.60;;
36829;SDS011;22767;47.328;9.640;2022-12-08T12:06:01;6.18;;;3.55;;
36829;SDS011;22767;47.328;9.640;2022-12-08T12:14:06;4.72;;;3.35;;
36829;SDS011;22767;47.328;9.640;2022-12-08T12:16:41;5.28;;;3.45;;
36829;SDS011;22767;47.328;9.640;2022-12-08T12:19:14;5.57;;;3.28;;
36829;SDS011;22767;47.328;9.640;2022-12-08T12:21:42;7.63;;;3.63;;
36829;SDS011;22767;47.328;9.640;2022-12-08T12:24:16;5.10;;;3.42;;
36829;SDS011;22767;47.328;9.640;2022-12-08T12:29:57;8.70;;;4.03;;
36829;SDS011;22767;47.328;9.640;2022-12-08T12:32:24;7.57;;;3.90;;
36829;SDS011;22767;47.328;9.640;2022-12-08T12:34:52;4.57;;;3.35;;
36829;SDS011;22767;47.328;9.640;2022-12-08T12:45:36;6.85;;;4.18;;
36829;SDS011;22767;47.328;9.640;2022-12-08T12:50:43;8.13;;;4.90;;
36829;SDS011;22767;47.328;9.640;2022-12-08T12:56:02;8.93;;;5.60;;
36829;SDS011;22767;47.328;9.640;2022-12-08T13:03:33;9.68;;;5.63;;
36829;SDS011;22767;47.328;9.640;2022-12-08T13:06:02;10.20;;;5.38;;
36829;SDS011;22767;47.328;9.640;2022-12-08T13:08:28;9.35;;;5.47;;
36829;SDS011;22767;47.328;9.640;2022-12-08T13:10:57;10.05;;;5.90;;
36829;SDS011;22767;47.328;9.640;2022-12-08T13:13:24;9.88;;;6.20;;
36829;SDS011;22767;47.328;9.640;2022-12-08T13:16:04;10.13;;;6.45;;
36829;SDS011;22767;47.328;9.640;2022-12-08T13:18:50;11.82;;;6.65;;
36829;SDS011;22767;47.328;9.640;2022-12-08T13:21:20;12.15;;;6.47;;
36829;SDS011;22767;47.328;9.640;2022-12-08T13:23:50;10.80;;;6.88;;
36829;SDS011;22767;47.328;9.640;2022-12-08T13:26:45;10.70;;;7.00;;
36829;SDS011;22767;47.328;9.640;2022-12-08T13:29:30;10.68;;;6.85;;
36829;SDS011;22767;47.328;9.640;2022-12-08T13:31:57;12.65;;;7.57;;
36829;SDS011;22767;47.328;9.640;2022-12-08T13:34:34;12.35;;;7.65;;
36829;SDS011;22767;47.328;9.640;2022-12-08T13:39:39;11.80;;;7.78;;
36829;SDS011;22767;47.328;9.640;2022-12-08T13:44:36;11.38;;;7.43;;
36829;SDS011;22767;47.328;9.640;2022-12-08T13:47:04;10.80;;;7.40;;
36829;SDS011;22767;47.328;9.640;2022-12-08T13:49:38;14.63;;;8.43;;
36829;SDS011;22767;47.328;9.640;2022-12-08T13:52:12;12.13;;;7.95;;
36829;SDS011;22767;47.328;9.640;2022-12-08T13:54:41;13.90;;;8.68;;
36829;SDS011;22767;47.328;9.640;2022-12-08T13:57:12;13.82;;;8.63;;
36829;SDS011;22767;47.328;9.640;2022-12-08T13:59:43;14.30;;;8.23;;
36829;SDS011;22767;47.328;9.640;2022-12-08T14:02:14;13.52;;;8.80;;
36829;SDS011;22767;47.328;9.640;2022-12-08T14:04:44;14.75;;;9.32;;
36829;SDS011;22767;47.328;9.640;2022-12-08T14:07:11;14.55;;;8.82;;
36829;SDS011;22767;47.328;9.640;2022-12-08T14:09:37;16.00;;;9.43;;
36829;SDS011;22767;47.328;9.640;2022-12-08T14:14:32;15.18;;;9.20;;
36829;SDS011;22767;47.328;9.640;2022-12-08T14:17:03;15.52;;;9.38;;
36829;SDS011;22767;47.328;9.640;2022-12-08T14:19:30;17.30;;;9.60;;
36829;SDS011;22767;47.328;9.640;2022-12-08T14:24:24;15.68;;;9.68;;
36829;SDS011;22767;47.328;9.640;2022-12-08T14:26:51;16.27;;;10.20;;
36829;SDS011;22767;47.328;9.640;2022-12-08T14:32:49;15.05;;;9.55;;
36829;SDS011;22767;47.328;9.640;2022-12-08T14:34:51;16.10;;;10.18;;
36829;SDS011;22767;47.328;9.640;2022-12-08T14:37:18;16.90;;;10.05;;
36829;SDS011;22767;47.328;9.640;2022-12-08T14:39:44;15.57;;;9.25;;
36829;SDS011;22767;47.328;9.640;2022-12-08T14:42:13;15.75;;;10.02;;
36829;SDS011;22767;47.328;9.640;2022-12-08T14:44:42;18.52;;;10.65;;
36829;SDS011;22767;47.328;9.640;2022-12-08T14:47:09;19.20;;;10.75;;
36829;SDS011;22767;47.328;9.640;2022-12-08T14:49:37;15.02;;;9.68;;
36829;SDS011;22767;47.328;9.640;2022-12-08T14:52:10;16.38;;;10.13;;
36829;SDS011;22767;47.328;9.640;2022-12-08T14:54:36;17.45;;;9.95;;
36829;SDS011;22767;47.328;9.640;2022-12-08T14:57:03;17.30;;;10.68;;
36829;SDS011;22767;47.328;9.640;2022-12-08T14:59:33;15.77;;;10.63;;
36829;SDS011;22767;47.328;9.640;2022-12-08T15:02:22;17.45;;;10.10;;
36829;SDS011;22767;47.328;9.640;2022-12-08T15:04:47;15.38;;;10.07;;
36829;SDS011;22767;47.328;9.640;2022-12-08T15:07:15;16.75;;;10.90;;
36829;SDS011;22767;47.328;9.640;2022-12-08T15:09:42;16.88;;;10.23;;
36829;SDS011;22767;47.328;9.640;2022-12-08T15:14:40;15.63;;;10.05;;
36829;SDS011;22767;47.328;9.640;2022-12-08T15:19:54;15.05;;;10.07;;
36829;SDS011;22767;47.328;9.640;2022-12-08T15:22:21;16.23;;;10.07;;
36829;SDS011;22767;47.328;9.640;2022-12-08T15:24:47;18.77;;;11.23;;
36829;SDS011;22767;47.328;9.640;2022-12-08T15:27:17;15.50;;;10.48;;
36829;SDS011;22767;47.328;9.640;2022-12-08T15:29:45;19.13;;;10.48;;
36829;SDS011;22767;47.328;9.640;2022-12-08T15:32:11;17.02;;;9.73;;
36829;SDS011;22767;47.328;9.640;2022-12-08T15:34:38;17.02;;;9.57;;
36829;SDS011;22767;47.328;9.640;2022-12-08T15:37:05;18.30;;;10.63;;
36829;SDS011;22767;47.328;9.640;2022-12-08T15:39:36;15.85;;;10.68;;
36829;SDS011;22767;47.328;9.640;2022-12-08T15:42:03;20.48;;;10.52;;
36829;SDS011;22767;47.328;9.640;2022-12-08T15:44:29;18.20;;;10.68;;
36829;SDS011;22767;47.328;9.640;2022-12-08T15:46:57;16.33;;;10.35;;
36829;SDS011;22767;47.328;9.640;2022-12-08T15:49:23;20.88;;;12.43;;
36829;SDS011;22767;47.328;9.640;2022-12-08T15:51:50;16.98;;;10.57;;
36829;SDS011;22767;47.328;9.640;2022-12-08T15:54:17;18.50;;;11.68;;
36829;SDS011;22767;47.328;9.640;2022-12-08T15:56:48;19.60;;;10.90;;
36829;SDS011;22767;47.328;9.640;2022-12-08T15:59:19;16.98;;;11.18;;
36829;SDS011;22767;47.328;9.640;2022-12-08T16:01:45;18.40;;;10.85;;
36829;SDS011;22767;47.328;9.640;2022-12-08T16:04:12;18.63;;;11.00;;
36829;SDS011;22767;47.328;9.640;2022-12-08T16:06:40;19.20;;;11.77;;
36829;SDS011;22767;47.328;9.640;2022-12-08T16:09:18;19.70;;;11.35;;
36829;SDS011;22767;47.328;9.640;2022-12-08T16:11:45;18.67;;;12.25;;
36829;SDS011;22767;47.328;9.640;2022-12-08T16:14:30;21.73;;;12.43;;
36829;SDS011;22767;47.328;9.640;2022-12-08T16:16:56;17.35;;;10.93;;
36829;SDS011;22767;47.328;9.640;2022-12-08T16:19:23;17.20;;;11.10;;
36829;SDS011;22767;47.328;9.640;2022-12-08T16:21:49;18.48;;;10.32;;
36829;SDS011;22767;47.328;9.640;2022-12-08T16:24:16;18.05;;;10.98;;
36829;SDS011;22767;47.328;9.640;2022-12-08T16:26:42;18.83;;;11.02;;
36829;SDS011;22767;47.328;9.640;2022-12-08T16:29:11;16.80;;;10.70;;
36829;SDS011;22767;47.328;9.640;2022-12-08T16:31:41;17.83;;;10.82;;
36829;SDS011;22767;47.328;9.640;2022-12-08T16:34:07;16.77;;;10.07;;
36829;SDS011;22767;47.328;9.640;2022-12-08T16:36:33;15.35;;;8.93;;
36829;SDS011;22767;47.328;9.640;2022-12-08T16:38:59;16.40;;;9.23;;
36829;SDS011;22767;47.328;9.640;2022-12-08T16:41:26;13.73;;;9.10;;
36829;SDS011;22767;47.328;9.640;2022-12-08T16:44:11;15.02;;;9.30;;
36829;SDS011;22767;47.328;9.640;2022-12-08T16:46:37;16.48;;;10.95;;
36829;SDS011;22767;47.328;9.640;2022-12-08T16:49:05;16.73;;;9.40;;
36829;SDS011;22767;47.328;9.640;2022-12-08T16:51:32;15.88;;;9.75;;